Time;durP1;ratioP1;P1;durP2;ratioP2;P2;SDS_P1;SDS_P2;PMS_P1;PMS_P2;Temp;Humidity;BMP_temperature;BMP_pressure;BME280_temperature;BME280_humidity;BME280_pressure;Samples;Min_cycle;Max_cycle;Signal;HPM_P1;HPM_P2
2021/06/13 00:01:37;;;;;;;1.85;1.25;;;18.80;93.10;;;;;;5045856;28;20032;-68
2021/06/13 00:04:04;;;;;;;2.63;1.67;;;18.80;92.90;;;;;;5045865;28;20490;-69
2021/06/13 00:06:30;;;;;;;1.70;0.90;;;18.80;93.00;;;;;;5046264;28;20036;-69
2021/06/13 00:08:56;;;;;;;2.20;1.20;;;18.80;92.90;;;;;;5045350;28;20037;-69
2021/06/13 00:11:22;;;;;;;1.50;1.00;;;18.80;92.80;;;;;;5046137;28;20345;-68
2021/06/13 00:13:49;;;;;;;1.70;1.17;;;18.80;92.90;;;;;;5045046;28;20033;-69
2021/06/13 00:16:19;;;;;;;2.28;1.17;;;18.70;92.90;;;;;;5045678;28;20049;-69
2021/06/13 00:18:45;;;;;;;2.03;1.10;;;18.70;93.00;;;;;;5045799;28;20029;-69
2021/06/13 00:21:13;;;;;;;1.55;1.27;;;18.70;93.10;;;;;;5045757;28;20438;-69
2021/06/13 00:23:41;;;;;;;1.25;0.88;;;18.70;93.20;;;;;;5045686;28;20036;-69
2021/06/13 00:26:07;;;;;;;1.83;0.98;;;18.70;93.20;;;;;;5047338;28;20060;-68
2021/06/13 00:28:33;;;;;;;1.38;1.00;;;18.70;93.30;;;;;;5050145;28;20043;-69
2021/06/13 00:30:59;;;;;;;2.00;1.10;;;18.70;93.40;;;;;;5050089;28;20685;-68
2021/06/13 00:33:26;;;;;;;2.90;0.98;;;18.60;93.40;;;;;;5049666;28;20462;-69
2021/06/13 00:35:51;;;;;;;2.40;1.25;;;18.60;93.50;;;;;;5049913;28;20124;-68
2021/06/13 00:38:17;;;;;;;2.90;1.90;;;18.60;93.60;;;;;;5049507;28;20116;-68
2021/06/13 00:40:43;;;;;;;3.13;1.30;;;18.60;93.70;;;;;;5049436;28;20035;-68
2021/06/13 00:43:08;;;;;;;3.47;1.42;;;18.50;93.80;;;;;;5049717;28;20055;-68
2021/06/13 00:45:34;;;;;;;1.50;1.10;;;18.50;93.90;;;;;;5049787;28;20275;-69
2021/06/13 00:48:00;;;;;;;1.75;1.40;;;18.50;94.00;;;;;;5049429;28;20041;-68
2021/06/13 00:50:45;;;;;;;2.03;1.20;;;18.50;94.10;;;;;;5049830;28;20485;-68
2021/06/13 00:53:11;;;;;;;2.55;1.63;;;18.50;94.10;;;;;;5049096;28;20021;-69
2021/06/13 00:55:38;;;;;;;1.30;1.20;;;18.40;94.00;;;;;;5049632;28;20025;-69
2021/06/13 00:58:05;;;;;;;3.60;1.20;;;18.40;94.10;;;;;;5049138;28;20049;-68
2021/06/13 01:00:31;;;;;;;3.83;1.40;;;18.40;94.20;;;;;;5047751;28;20016;-68
2021/06/13 01:02:57;;;;;;;4.05;1.40;;;18.30;94.30;;;;;;5049315;28;20131;-69
2021/06/13 01:05:24;;;;;;;5.38;1.10;;;18.30;94.30;;;;;;5049719;28;20029;-69
2021/06/13 01:08:09;;;;;;;2.50;1.60;;;18.30;94.30;;;;;;5048652;28;20056;-69
2021/06/13 01:10:56;;;;;;;6.03;1.50;;;18.20;94.40;;;;;;5049161;28;20048;-69
2021/06/13 01:13:28;;;;;;;2.80;1.55;;;18.20;94.60;;;;;;5048668;28;20023;-69
2021/06/13 01:16:08;;;;;;;2.42;1.50;;;18.20;94.30;;;;;;5049320;28;20094;-68
2021/06/13 01:18:50;;;;;;;1.67;1.23;;;18.10;94.30;;;;;;5048695;28;20025;-69
2021/06/13 01:21:22;;;;;;;5.30;1.38;;;18.10;94.30;;;;;;5048347;28;20024;-69
2021/06/13 01:23:48;;;;;;;1.38;1.02;;;18.10;94.20;;;;;;5048776;28;20037;-68
2021/06/13 01:26:47;;;;;;;2.05;0.77;;;18.10;94.00;;;;;;5049004;28;20131;-68
2021/06/13 01:29:21;;;;;;;2.17;0.93;;;18.00;93.70;;;;;;5048634;28;20047;-69
2021/06/13 01:31:50;;;;;;;1.80;0.90;;;18.00;93.80;;;;;;5048627;28;20036;-68
2021/06/13 01:34:21;;;;;;;1.17;0.73;;;18.00;93.70;;;;;;5048941;28;20041;-68
2021/06/13 01:36:49;;;;;;;4.78;0.88;;;17.90;93.70;;;;;;5048656;28;20033;-68
2021/06/13 01:39:23;;;;;;;2.58;0.80;;;17.90;93.60;;;;;;5048443;28;20440;-69
2021/06/13 01:41:50;;;;;;;3.17;0.85;;;17.80;93.40;;;;;;5048825;28;20029;-70
2021/06/13 01:44:18;;;;;;;1.17;0.80;;;17.80;93.10;;;;;;5048320;28;20655;-67
2021/06/13 01:46:46;;;;;;;1.88;0.90;;;17.70;93.00;;;;;;5048800;28;20064;-69
2021/06/13 01:49:13;;;;;;;1.88;1.05;;;17.70;93.20;;;;;;5047845;28;20134;-69
2021/06/13 01:51:39;;;;;;;2.85;0.75;;;17.60;93.10;;;;;;5047962;28;20051;-69
2021/06/13 01:54:06;;;;;;;2.88;0.98;;;17.50;93.10;;;;;;5048361;28;20033;-69
2021/06/13 01:56:37;;;;;;;1.88;1.02;;;17.50;92.90;;;;;;5048229;28;20099;-68
2021/06/13 01:59:04;;;;;;;2.72;1.00;;;17.40;92.90;;;;;;5048089;28;20194;-68
2021/06/13 02:01:32;;;;;;;4.80;1.02;;;17.40;92.90;;;;;;5048222;28;20029;-69
2021/06/13 02:04:00;;;;;;;3.40;1.10;;;17.30;92.90;;;;;;5047970;28;20030;-69
2021/06/13 02:06:34;;;;;;;2.28;0.90;;;17.30;92.90;;;;;;5048119;28;20543;-68
2021/06/13 02:09:03;;;;;;;3.38;1.10;;;17.20;91.80;;;;;;5047999;28;20037;-68
2021/06/13 02:11:31;;;;;;;8.55;1.02;;;17.20;90.70;;;;;;5047658;28;20108;-69
2021/06/13 02:13:58;;;;;;;1.98;1.00;;;17.20;90.30;;;;;;5046971;28;20033;-68
2021/06/13 02:16:25;;;;;;;5.03;1.00;;;17.10;90.30;;;;;;5048303;28;20029;-68
2021/06/13 02:18:51;;;;;;;2.78;1.30;;;17.10;90.40;;;;;;5047704;28;20024;-69
2021/06/13 02:21:18;;;;;;;3.30;1.20;;;17.00;90.20;;;;;;5047484;28;20079;-69
2021/06/13 02:23:44;;;;;;;3.60;1.00;;;16.90;90.40;;;;;;5047953;28;20025;-69
2021/06/13 02:26:12;;;;;;;3.47;1.08;;;16.90;90.70;;;;;;5047538;28;20036;-68
2021/06/13 02:28:43;;;;;;;7.20;1.10;;;16.80;91.00;;;;;;5047459;28;20036;-69
2021/06/13 02:31:10;;;;;;;5.53;0.75;;;16.70;91.60;;;;;;5047746;28;20035;-68
2021/06/13 02:33:42;;;;;;;1.38;0.75;;;16.60;91.80;;;;;;5047826;28;20021;-68
2021/06/13 02:36:08;;;;;;;2.30;1.00;;;16.50;92.00;;;;;;5047125;28;20052;-68
2021/06/13 02:38:34;;;;;;;2.05;1.17;;;16.50;92.10;;;;;;5047076;28;20052;-68
2021/06/13 02:41:00;;;;;;;2.40;0.90;;;16.40;92.20;;;;;;5047818;28;20063;-68
2021/06/13 02:43:25;;;;;;;1.25;0.80;;;16.40;92.40;;;;;;5047543;28;20025;-69
2021/06/13 02:45:51;;;;;;;3.28;1.10;;;16.30;92.50;;;;;;5047242;28;20097;-69
2021/06/13 02:48:18;;;;;;;2.13;1.02;;;16.20;92.60;;;;;;5046805;28;20041;-69
2021/06/13 02:50:43;;;;;;;2.38;0.85;;;16.20;92.60;;;;;;5047231;28;20021;-69
2021/06/13 02:53:21;;;;;;;1.60;0.93;;;16.10;92.60;;;;;;5047204;28;20094;-69
2021/06/13 02:56:02;;;;;;;2.83;0.70;;;16.10;92.80;;;;;;5047605;28;20041;-68
2021/06/13 02:58:27;;;;;;;4.30;1.05;;;16.10;92.90;;;;;;5047233;28;20044;-69
2021/06/13 03:00:56;;;;;;;4.65;1.52;;;16.00;93.00;;;;;;5046801;28;20118;-68
2021/06/13 03:03:22;;;;;;;5.30;1.15;;;16.00;92.90;;;;;;5045903;28;20035;-68
2021/06/13 03:05:50;;;;;;;3.55;1.40;;;16.00;92.70;;;;;;5046530;28;20086;-68
2021/06/13 03:08:18;;;;;;;1.70;0.80;;;15.90;92.60;;;;;;5046851;28;20041;-68
2021/06/13 03:10:45;;;;;;;2.38;1.17;;;15.90;92.90;;;;;;5046943;28;20028;-68
2021/06/13 03:13:11;;;;;;;3.72;0.80;;;15.90;92.50;;;;;;5046478;28;20347;-68
2021/06/13 03:15:37;;;;;;;4.10;0.90;;;15.90;92.40;;;;;;5047004;28;20029;-67
2021/06/13 03:18:03;;;;;;;;;;;15.90;92.00;;;;;;5047381;28;20357;-68
2021/06/13 03:20:29;;;;;;;1.88;1.00;;;15.90;91.80;;;;;;5046481;28;19908;-69
2021/06/13 03:22:57;;;;;;;4.05;1.13;;;16.00;91.80;;;;;;5046388;28;20025;-67
2021/06/13 03:25:24;;;;;;;4.22;1.00;;;16.00;91.90;;;;;;5046685;28;20075;-68
2021/06/13 03:27:51;;;;;;;4.72;0.65;;;16.00;91.90;;;;;;5046868;28;20799;-69
2021/06/13 03:30:18;;;;;;;3.15;0.77;;;15.90;91.70;;;;;;5046335;28;20122;-69
2021/06/13 03:32:44;;;;;;;4.65;0.70;;;15.90;91.30;;;;;;5046915;28;20025;-68
2021/06/13 03:35:10;;;;;;;;;;;15.90;91.20;;;;;;5046529;28;20103;-68
2021/06/13 03:37:37;;;;;;;3.67;1.05;;;15.80;90.80;;;;;;5046059;28;19909;-68
2021/06/13 03:40:04;;;;;;;7.95;0.90;;;15.80;90.80;;;;;;5046576;28;20025;-69
2021/06/13 03:42:30;;;;;;;2.50;1.05;;;15.90;90.70;;;;;;5046047;28;20017;-69
2021/06/13 03:44:58;;;;;;;1.45;0.88;;;15.90;90.70;;;;;;5046565;28;20032;-69
2021/06/13 03:47:24;;;;;;;4.93;0.90;;;15.80;90.60;;;;;;5045796;28;20052;-68
2021/06/13 03:49:51;;;;;;;5.10;1.00;;;15.90;90.50;;;;;;5046135;28;20500;-69
2021/06/13 03:52:18;;;;;;;5.93;0.95;;;16.00;90.30;;;;;;5045983;28;20033;-69
2021/06/13 03:54:45;;;;;;;5.47;0.98;;;16.10;89.60;;;;;;5046396;28;20082;-68
2021/06/13 03:57:11;;;;;;;4.32;1.20;;;16.20;88.70;;;;;;5046145;28;20882;-69
2021/06/13 03:59:39;;;;;;;2.70;1.10;;;16.40;87.40;;;;;;5045878;28;20116;-70
2021/06/13 04:02:06;;;;;;;6.40;1.00;;;16.80;84.90;;;;;;5045648;28;20025;-68
2021/06/13 04:04:44;;;;;;;4.40;1.60;;;17.10;83.20;;;;;;5046336;28;20040;-69
2021/06/13 04:07:12;;;;;;;5.88;1.02;;;17.40;81.40;;;;;;5043934;28;20021;-70
2021/06/13 04:09:42;;;;;;;4.05;1.25;;;17.80;79.50;;;;;;5046079;28;20044;-69
2021/06/13 04:12:09;;;;;;;3.45;0.90;;;18.00;78.80;;;;;;5046126;28;20104;-69
2021/06/13 04:14:35;;;;;;;9.95;0.90;;;18.10;77.90;;;;;;5046058;28;20383;-69
2021/06/13 04:17:01;;;;;;;8.77;0.93;;;18.10;77.10;;;;;;5045927;28;20028;-69
2021/06/13 04:19:28;;;;;;;6.78;1.02;;;18.00;77.30;;;;;;5045783;28;20134;-69
2021/06/13 04:21:54;;;;;;;3.78;1.00;;;18.10;76.80;;;;;;5045668;28;20531;-68
2021/06/13 04:24:21;;;;;;;5.53;1.30;;;18.10;76.80;;;;;;5044617;28;20092;-70
2021/06/13 04:26:48;;;;;;;1.90;0.80;;;18.00;76.40;;;;;;5045969;28;20142;-69
2021/06/13 04:29:14;;;;;;;2.38;1.00;;;18.10;77.20;;;;;;5045774;28;20124;-69
2021/06/13 04:31:40;;;;;;;5.72;1.67;;;18.20;76.10;;;;;;5044364;28;20113;-69
2021/06/13 04:34:06;;;;;;;4.78;1.08;;;18.20;75.70;;;;;;5045606;28;20032;-69
2021/06/13 04:36:31;;;;;;;1.60;0.77;;;18.30;75.70;;;;;;5045633;28;20021;-69
2021/06/13 04:38:57;;;;;;;2.50;1.00;;;18.20;74.10;;;;;;5046034;28;20113;-69
2021/06/13 04:41:23;;;;;;;10.38;1.25;;;18.30;74.00;;;;;;5045690;28;20489;-69
2021/06/13 04:43:48;;;;;;;3.13;1.00;;;18.20;73.60;;;;;;5045296;28;20037;-69
2021/06/13 04:46:20;;;;;;;1.80;0.70;;;18.20;73.70;;;;;;5046003;28;20063;-69
2021/06/13 04:48:46;;;;;;;9.07;0.90;;;18.30;73.80;;;;;;5045545;28;20124;-69
2021/06/13 04:51:12;;;;;;;10.27;1.20;;;18.30;73.70;;;;;;5044992;28;20120;-69
2021/06/13 04:53:51;;;;;;;6.35;2.35;;;18.10;73.90;;;;;;5044234;28;20029;-68
2021/06/13 04:56:43;;;;;;;1.92;1.00;;;18.10;74.20;;;;;;5043153;28;20033;-68
2021/06/13 04:59:09;;;;;;;4.57;0.80;;;18.00;74.80;;;;;;5035596;28;20565;-68
2021/06/13 05:01:35;;;;;;;3.42;0.80;;;18.10;74.60;;;;;;5044846;28;20029;-68
2021/06/13 05:04:02;;;;;;;6.05;0.80;;;18.10;74.10;;;;;;5043641;28;20100;-69
2021/06/13 05:06:28;;;;;;;3.22;1.33;;;18.10;74.80;;;;;;5043336;28;20508;-69
2021/06/13 05:08:54;;;;;;;3.75;0.88;;;18.10;75.60;;;;;;5043940;28;20125;-69
2021/06/13 05:11:20;;;;;;;1.60;0.80;;;18.10;74.90;;;;;;5045404;28;20071;-69
2021/06/13 05:13:46;;;;;;;3.50;1.05;;;18.20;74.70;;;;;;5048193;28;20037;-69
2021/06/13 05:16:11;;;;;;;5.38;1.65;;;18.30;74.60;;;;;;5049233;28;20082;-69
2021/06/13 05:18:37;;;;;;;2.40;0.68;;;18.40;73.50;;;;;;5047677;28;20409;-68
2021/06/13 05:21:03;;;;;;;4.53;1.13;;;18.50;73.20;;;;;;5047414;28;20120;-69
2021/06/13 05:23:29;;;;;;;2.03;0.60;;;18.60;72.50;;;;;;5047309;28;20032;-69
2021/06/13 05:25:57;;;;;;;3.20;0.95;;;18.70;72.50;;;;;;5047955;28;20028;-68
2021/06/13 05:28:23;;;;;;;5.20;0.80;;;18.80;71.60;;;;;;5047982;28;20107;-69
2021/06/13 05:30:50;;;;;;;3.25;0.70;;;18.80;71.60;;;;;;5048812;28;20768;-68
2021/06/13 05:33:16;;;;;;;4.97;0.90;;;18.90;71.30;;;;;;5047335;28;20128;-69
2021/06/13 05:35:42;;;;;;;4.95;0.77;;;18.90;70.90;;;;;;5046645;28;20045;-69
2021/06/13 05:38:09;;;;;;;2.63;0.77;;;19.10;70.90;;;;;;5048545;28;20094;-68
2021/06/13 05:40:36;;;;;;;4.38;0.80;;;19.40;69.80;;;;;;5048551;28;20021;-68
2021/06/13 05:43:02;;;;;;;3.20;0.75;;;19.60;68.60;;;;;;5048545;28;20075;-69
2021/06/13 05:45:30;;;;;;;7.05;1.00;;;19.90;67.70;;;;;;5047905;28;20049;-68
2021/06/13 05:47:55;;;;;;;2.65;0.68;;;20.50;64.20;;;;;;5047099;28;20139;-69
2021/06/13 05:50:22;;;;;;;4.15;0.73;;;21.10;61.40;;;;;;5047378;28;21227;-70
2021/06/13 05:52:48;;;;;;;2.05;0.60;;;21.90;59.50;;;;;;5047219;28;20124;-70
2021/06/13 05:55:14;;;;;;;3.97;1.15;;;23.00;56.70;;;;;;5048567;28;20104;-68
2021/06/13 05:57:40;;;;;;;4.53;1.02;;;24.30;50.70;;;;;;5046563;28;20036;-71
2021/06/13 06:00:12;;;;;;;1.90;0.60;;;25.00;46.90;;;;;;5048263;28;20028;-70
2021/06/13 06:02:38;;;;;;;2.65;0.93;;;26.30;44.90;;;;;;5048109;28;20521;-69
2021/06/13 06:05:05;;;;;;;1.30;0.75;;;27.40;42.20;;;;;;5047902;28;20052;-69
2021/06/13 06:07:31;;;;;;;6.13;0.77;;;28.60;39.50;;;;;;5047852;28;20074;-69
2021/06/13 06:09:57;;;;;;;4.40;0.68;;;29.00;37.00;;;;;;5047722;28;20029;-70
2021/06/13 06:12:24;;;;;;;5.15;0.70;;;29.40;35.30;;;;;;5048204;28;20763;-70
2021/06/13 06:14:49;;;;;;;2.92;1.00;;;30.30;35.20;;;;;;5046753;28;20092;-69
2021/06/13 06:17:15;;;;;;;4.88;0.60;;;30.10;34.10;;;;;;5047826;28;20104;-69
2021/06/13 06:19:41;;;;;;;2.65;0.70;;;30.50;33.70;;;;;;5047652;28;20068;-69
2021/06/13 06:22:07;;;;;;;4.05;0.60;;;30.70;33.20;;;;;;5048111;28;20025;-69
2021/06/13 06:24:34;;;;;;;2.72;0.70;;;31.30;32.00;;;;;;5047183;28;20078;-69
2021/06/13 06:27:00;;;;;;;5.65;0.52;;;31.50;32.20;;;;;;5047794;28;20658;-70
2021/06/13 06:29:26;;;;;;;1.52;0.70;;;31.90;31.40;;;;;;5047137;28;20037;-70
2021/06/13 06:31:52;;;;;;;4.32;0.70;;;31.70;30.20;;;;;;5047882;28;20555;-69
2021/06/13 06:34:18;;;;;;;1.67;0.57;;;31.90;30.20;;;;;;5047080;28;20052;-70
2021/06/13 06:36:45;;;;;;;5.00;0.60;;;32.00;30.50;;;;;;5046286;28;20104;-70
2021/06/13 06:39:11;;;;;;;5.28;0.68;;;32.20;30.50;;;;;;5047155;28;20040;-70
2021/06/13 06:41:37;;;;;;;0.90;0.50;;;32.40;30.00;;;;;;5047567;28;20112;-69
2021/06/13 06:44:07;;;;;;;3.08;0.60;;;32.40;29.30;;;;;;5047609;28;20029;-70
2021/06/13 06:46:34;;;;;;;4.03;0.77;;;32.30;28.70;;;;;;5047606;28;20025;-68
2021/06/13 06:49:00;;;;;;;6.80;0.60;;;31.80;29.60;;;;;;5047158;28;20116;-69
2021/06/13 06:51:29;;;;;;;3.55;0.60;;;31.20;29.00;;;;;;5047192;28;20029;-70
2021/06/13 06:53:58;;;;;;;4.68;0.40;;;31.10;30.50;;;;;;5047473;28;20025;-69
2021/06/13 06:56:24;;;;;;;3.28;0.70;;;31.20;29.90;;;;;;5047091;28;20051;-70
2021/06/13 06:58:50;;;;;;;4.47;0.75;;;31.50;29.10;;;;;;5047221;28;20067;-69
2021/06/13 07:01:16;;;;;;;1.80;0.50;;;30.90;29.40;;;;;;5047088;28;20075;-69
2021/06/13 07:03:43;;;;;;;2.55;0.70;;;30.60;30.00;;;;;;5047006;28;20025;-70
2021/06/13 07:06:09;;;;;;;2.00;0.60;;;30.50;29.50;;;;;;5046682;28;20022;-69
2021/06/13 07:08:34;;;;;;;6.78;0.70;;;30.70;29.50;;;;;;5046943;28;20037;-68
2021/06/13 07:11:00;;;;;;;5.97;0.70;;;30.80;30.00;;;;;;5046626;28;20029;-69
2021/06/13 07:13:26;;;;;;;2.92;0.88;;;30.70;29.70;;;;;;5046569;28;20029;-70
2021/06/13 07:15:52;;;;;;;6.32;0.65;;;30.80;28.80;;;;;;5047041;28;20744;-70
2021/06/13 07:18:17;;;;;;;2.55;0.60;;;30.50;29.90;;;;;;5046533;28;20234;-70
2021/06/13 07:20:43;;;;;;;8.55;1.58;;;31.00;29.90;;;;;;5046761;28;20041;-69
2021/06/13 07:23:09;;;;;;;9.52;0.80;;;31.20;29.50;;;;;;5046374;28;20021;-69
2021/06/13 07:25:35;;;;;;;3.17;0.73;;;31.10;28.70;;;;;;5046740;28;20036;-69
2021/06/13 07:28:01;;;;;;;6.70;0.98;;;31.00;27.60;;;;;;5045286;28;20039;-68
2021/06/13 07:30:27;;;;;;;4.32;0.50;;;30.80;28.20;;;;;;5046896;28;20044;-69
2021/06/13 07:32:53;;;;;;;6.45;0.77;;;30.30;28.20;;;;;;5046187;28;20409;-68
2021/06/13 07:35:19;;;;;;;2.72;0.80;;;29.80;29.10;;;;;;5046146;28;20052;-69
2021/06/13 07:37:46;;;;;;;3.10;0.98;;;29.40;29.70;;;;;;5046283;28;20071;-69
2021/06/13 07:40:13;;;;;;;1.95;0.50;;;29.70;29.20;;;;;;5046384;28;20524;-69
2021/06/13 07:42:39;;;;;;;6.82;0.70;;;29.90;30.00;;;;;;5046169;28;20017;-68
2021/06/13 07:45:08;;;;;;;7.43;0.68;;;29.90;29.20;;;;;;5046622;28;20044;-69
2021/06/13 07:47:33;;;;;;;4.75;0.60;;;29.50;29.20;;;;;;5046111;28;20021;-69
2021/06/13 07:49:59;;;;;;;4.70;0.57;;;29.30;29.60;;;;;;5045771;28;20047;-69
2021/06/13 07:52:26;;;;;;;4.13;0.77;;;29.70;30.00;;;;;;5046430;28;20094;-69
2021/06/13 07:54:52;;;;;;;3.10;0.60;;;29.70;29.40;;;;;;5046381;28;20037;-69
2021/06/13 07:57:18;;;;;;;3.80;0.70;;;29.70;29.50;;;;;;5045128;28;20025;-70
2021/06/13 07:59:45;;;;;;;2.88;0.60;;;30.10;29.00;;;;;;5045200;28;20029;-68
2021/06/13 08:02:12;;;;;;;7.53;0.75;;;29.70;28.60;;;;;;5045659;28;20032;-69
2021/06/13 08:04:42;;;;;;;8.35;0.70;;;29.50;29.20;;;;;;5045703;28;20025;-69
2021/06/13 08:07:07;;;;;;;6.35;1.02;;;29.30;29.20;;;;;;5046278;28;20029;-69
2021/06/13 08:09:33;;;;;;;4.03;0.80;;;29.50;29.20;;;;;;5046070;28;20033;-69
2021/06/13 08:11:59;;;;;;;5.20;0.82;;;29.80;29.10;;;;;;5044420;28;20036;-69
2021/06/13 08:14:25;;;;;;;4.03;1.05;;;29.80;28.70;;;;;;5045904;28;20028;-70
2021/06/13 08:16:50;;;;;;;3.40;0.70;;;29.80;29.50;;;;;;5046084;28;20098;-69
2021/06/13 08:19:16;;;;;;;2.70;0.70;;;30.30;27.50;;;;;;5045610;28;20161;-69
2021/06/13 08:21:42;;;;;;;7.43;0.90;;;29.90;28.70;;;;;;5046144;28;20116;-69
2021/06/13 08:24:09;;;;;;;1.45;0.50;;;30.40;28.90;;;;;;5045553;28;20048;-70
2021/06/13 08:26:35;;;;;;;6.50;0.80;;;30.60;28.90;;;;;;5044549;28;20121;-69
2021/06/13 08:29:02;;;;;;;2.03;0.80;;;30.80;27.60;;;;;;5044589;28;20043;-70
2021/06/13 08:31:28;;;;;;;3.42;1.52;;;30.80;27.50;;;;;;5045487;28;20037;-68
2021/06/13 08:33:55;;;;;;;2.75;0.80;;;30.50;28.40;;;;;;5044201;28;20029;-69
2021/06/13 08:36:20;;;;;;;6.57;1.00;;;30.30;28.20;;;;;;5045864;28;20055;-70
2021/06/13 08:38:48;;;;;;;6.22;0.90;;;30.50;27.70;;;;;;5045671;28;20104;-70
2021/06/13 08:41:15;;;;;;;3.97;0.88;;;30.10;27.50;;;;;;5044552;28;20021;-69
2021/06/13 08:43:41;;;;;;;3.60;0.90;;;29.80;27.60;;;;;;5046032;28;20485;-70
2021/06/13 08:46:07;;;;;;;2.75;0.50;;;29.60;27.90;;;;;;5045682;28;20037;-69
2021/06/13 08:48:34;;;;;;;6.43;0.85;;;29.30;28.40;;;;;;5047843;28;20048;-69
2021/06/13 08:51:02;;;;;;;3.08;0.93;;;29.20;28.60;;;;;;5049645;28;20025;-68
2021/06/13 08:53:28;;;;;;;2.17;1.08;;;29.20;29.20;;;;;;5049164;28;20035;-69
2021/06/13 08:55:54;;;;;;;5.50;0.80;;;29.60;28.90;;;;;;5049458;28;20036;-69
2021/06/13 08:58:20;;;;;;;4.57;0.82;;;29.70;29.20;;;;;;5049272;28;20013;-70
2021/06/13 09:00:47;;;;;;;10.75;0.65;;;29.80;28.70;;;;;;5049420;28;20459;-68
2021/06/13 09:03:13;;;;;;;4.90;1.45;;;30.00;27.80;;;;;;5048697;28;20017;-69
2021/06/13 09:05:40;;;;;;;2.30;0.70;;;29.90;28.20;;;;;;5049371;28;20041;-67
2021/06/13 09:08:10;;;;;;;2.65;0.60;;;30.00;28.90;;;;;;5049354;28;20021;-68
2021/06/13 09:10:38;;;;;;;2.55;0.60;;;30.10;28.20;;;;;;5049374;28;20048;-69
2021/06/13 09:13:24;;;;;;;2.92;0.70;;;30.40;27.80;;;;;;5049413;28;20090;-69
2021/06/13 09:15:52;;;;;;;3.58;0.73;;;30.00;27.60;;;;;;5049263;28;20078;-69
2021/06/13 09:18:37;;;;;;;2.38;0.70;;;30.20;28.20;;;;;;5047454;28;20033;-69
2021/06/13 09:21:28;;;;;;;7.65;0.85;;;30.40;28.00;;;;;;5049164;28;20048;-70
2021/06/13 09:23:55;;;;;;;4.20;0.75;;;30.40;27.50;;;;;;5049110;28;20028;-70
2021/06/13 09:26:28;;;;;;;3.22;0.68;;;30.10;27.00;;;;;;5048708;28;20025;-70
2021/06/13 09:28:56;;;;;;;3.08;0.60;;;30.10;27.10;;;;;;5048934;28;20048;-70
2021/06/13 09:31:30;;;;;;;2.08;0.70;;;29.90;27.30;;;;;;5048597;28;20029;-69
2021/06/13 09:34:00;;;;;;;5.53;0.75;;;30.00;27.60;;;;;;5048903;28;20084;-68
2021/06/13 09:36:31;;;;;;;2.42;0.70;;;30.10;27.20;;;;;;5047458;28;20123;-70
2021/06/13 09:39:02;;;;;;;3.88;0.93;;;30.30;27.40;;;;;;5048991;28;20374;-69
2021/06/13 09:41:28;;;;;;;5.03;0.98;;;30.30;27.40;;;;;;5048611;28;20025;-69
2021/06/13 09:43:55;;;;;;;2.13;0.70;;;30.50;26.80;;;;;;5048921;28;20029;-69
2021/06/13 09:46:24;;;;;;;2.17;0.68;;;30.80;26.20;;;;;;5046226;28;20075;-67
2021/06/13 09:49:14;;;;;;;4.93;1.35;;;30.90;26.00;;;;;;5047429;28;20048;-69
2021/06/13 09:51:45;;;;;;;3.53;0.70;;;30.50;25.20;;;;;;5044342;28;20047;-68
2021/06/13 09:54:17;;;;;;;5.05;0.60;;;30.00;26.10;;;;;;5047676;28;20489;-68
2021/06/13 09:56:43;;;;;;;5.65;1.10;;;29.90;28.40;;;;;;5047875;28;20021;-68
2021/06/13 09:59:14;;;;;;;10.43;1.27;;;29.60;28.20;;;;;;5046964;28;20079;-68
2021/06/13 10:01:48;;;;;;;4.68;0.80;;;29.20;28.40;;;;;;5048292;28;20021;-68
2021/06/13 10:04:20;;;;;;;6.80;0.90;;;28.50;28.50;;;;;;5047697;28;20033;-67
2021/06/13 10:06:54;;;;;;;6.30;0.80;;;28.10;28.80;;;;;;5047657;28;20332;-68
2021/06/13 10:09:22;;;;;;;5.97;1.15;;;27.60;29.70;;;;;;5047950;28;20045;-67
2021/06/13 10:11:50;;;;;;;5.13;1.35;;;27.40;30.30;;;;;;5048107;28;20033;-68
2021/06/13 10:14:17;;;;;;;3.55;0.70;;;27.30;30.00;;;;;;5029300;28;20033;-67
2021/06/13 10:16:47;;;;;;;3.60;0.80;;;26.90;29.40;;;;;;5046810;28;20025;-69
2021/06/13 10:19:18;;;;;;;3.20;0.70;;;26.30;30.40;;;;;;5044615;28;20029;-67
2021/06/13 10:21:44;;;;;;;3.30;0.75;;;26.30;31.90;;;;;;5045951;28;20029;-67
2021/06/13 10:24:15;;;;;;;2.38;0.88;;;26.30;31.30;;;;;;5047831;28;20032;-66
2021/06/13 10:26:44;;;;;;;4.13;1.20;;;26.10;31.10;;;;;;5047087;28;20052;-66
2021/06/13 10:29:10;;;;;;;4.00;0.70;;;26.00;31.90;;;;;;5045473;28;20144;-67
2021/06/13 10:31:37;;;;;;;7.45;0.93;;;26.00;31.30;;;;;;5045809;28;20025;-67
2021/06/13 10:34:04;;;;;;;1.90;0.90;;;25.90;31.30;;;;;;5043537;28;20051;-67
2021/06/13 10:36:35;;;;;;;3.20;0.80;;;25.80;31.10;;;;;;5045845;28;20044;-68
2021/06/13 10:39:03;;;;;;;4.80;0.85;;;25.90;31.90;;;;;;5046384;28;20625;-67
2021/06/13 10:41:29;;;;;;;3.33;0.73;;;25.70;31.10;;;;;;5045235;28;20040;-68
2021/06/13 10:44:03;;;;;;;6.85;1.05;;;25.60;31.20;;;;;;5045482;28;20113;-68
2021/06/13 10:46:31;;;;;;;6.35;0.98;;;25.40;31.30;;;;;;5046190;28;20020;-67
2021/06/13 10:48:59;;;;;;;6.00;0.70;;;25.20;30.80;;;;;;5046311;28;20033;-68
2021/06/13 10:51:37;;;;;;;3.03;0.85;;;24.90;30.70;;;;;;5046491;28;20033;-68
2021/06/13 10:54:21;;;;;;;6.60;3.88;;;24.70;31.10;;;;;;5046094;28;20032;-67
2021/06/13 10:56:52;;;;;;;7.10;1.00;;;24.80;32.00;;;;;;5045923;28;20053;-68
2021/06/13 10:59:20;;;;;;;4.28;1.08;;;24.70;31.20;;;;;;5044863;28;20070;-68
2021/06/13 11:02:08;;;;;;;3.17;0.88;;;24.60;31.60;;;;;;5046765;28;20029;-69
2021/06/13 11:04:53;;;;;;;4.72;1.40;;;24.60;33.60;;;;;;5047311;28;20048;-68
2021/06/13 11:07:38;;;;;;;2.00;0.77;;;24.70;32.90;;;;;;5046577;28;20389;-68
2021/06/13 11:12:49;;;;;;;5.55;1.00;;;24.60;33.00;;;;;;5046774;28;20556;-68
2021/06/13 11:15:35;;;;;;;5.10;0.70;;;24.70;32.50;;;;;;5046351;28;20402;-67
2021/06/13 11:18:07;;;;;;;;;;;24.90;32.80;;;;;;5038705;28;20048;-67
2021/06/13 11:23:08;;;;;;;1.73;0.70;;;25.00;32.90;;;;;;5047095;28;20033;-69
2021/06/13 11:25:39;;;;;;;7.13;0.95;;;25.10;33.70;;;;;;5046873;28;20040;-68
2021/06/13 11:28:13;;;;;;;3.97;0.63;;;25.10;32.60;;;;;;5044004;28;20033;-69
2021/06/13 11:30:42;;;;;;;5.15;0.82;;;25.00;32.10;;;;;;5044580;28;20112;-68
2021/06/13 11:33:09;;;;;;;5.28;1.52;;;24.70;32.30;;;;;;5044099;28;20025;-69
2021/06/13 11:35:42;;;;;;;3.50;1.00;;;24.60;32.50;;;;;;5044976;28;20424;-69
2021/06/13 11:38:14;;;;;;;5.95;1.17;;;24.60;32.70;;;;;;5046067;28;20063;-68
2021/06/13 11:40:51;;;;;;;4.35;1.27;;;24.60;32.30;;;;;;5045376;28;20118;-68
2021/06/13 11:43:19;;;;;;;2.83;0.85;;;24.70;32.70;;;;;;5044455;28;20234;-68
2021/06/13 11:46:03;;;;;;;7.82;0.80;;;24.80;32.50;;;;;;5046357;28;20049;-68
2021/06/13 11:48:34;;;;;;;3.53;0.95;;;25.00;32.00;;;;;;5044293;28;20037;-67
2021/06/13 11:51:14;;;;;;;8.40;0.80;;;25.00;31.90;;;;;;5044563;28;20033;-67
2021/06/13 11:53:58;;;;;;;6.88;0.73;;;25.10;32.30;;;;;;5044818;28;20760;-66
2021/06/13 11:56:36;;;;;;;2.55;0.70;;;25.30;31.90;;;;;;5045296;28;20037;-67
2021/06/13 11:59:22;;;;;;;6.15;0.63;;;25.40;32.00;;;;;;5044117;28;20040;-67
2021/06/13 12:01:59;;;;;;;3.38;0.90;;;25.50;32.10;;;;;;5043580;28;20102;-67
2021/06/13 12:04:29;;;;;;;4.93;0.80;;;25.60;31.70;;;;;;5044762;28;20057;-68
2021/06/13 12:06:56;;;;;;;6.50;0.65;;;25.50;30.40;;;;;;5043939;28;20063;-67
2021/06/13 12:09:24;;;;;;;7.05;0.80;;;25.20;30.20;;;;;;5042335;28;20124;-67
2021/06/13 12:11:51;;;;;;;4.88;1.08;;;25.20;31.10;;;;;;5043591;28;20033;-67
2021/06/13 12:14:16;;;;;;;3.90;0.88;;;25.30;31.40;;;;;;5043239;28;20049;-66
2021/06/13 12:16:43;;;;;;;2.80;0.90;;;25.30;30.80;;;;;;5044776;28;20041;-67
2021/06/13 12:19:09;;;;;;;10.15;0.80;;;25.00;29.30;;;;;;5044608;28;20065;-67
2021/06/13 12:21:34;;;;;;;3.63;0.80;;;24.50;30.90;;;;;;5045698;28;20083;-67
2021/06/13 12:29:40;;;;;;;3.95;0.80;;;24.20;32.20;;;;;;5048329;28;20118;-68
2021/06/13 12:32:16;;;;;;;4.93;0.75;;;24.30;32.70;;;;;;5049292;28;20025;-69
2021/06/13 12:34:42;;;;;;;8.48;0.82;;;24.50;32.40;;;;;;5049754;28;20275;-68
2021/06/13 12:37:16;;;;;;;6.72;1.42;;;24.60;32.00;;;;;;5048538;28;20559;-69
2021/06/13 12:39:52;;;;;;;6.95;0.82;;;24.60;32.60;;;;;;5048366;28;20044;-68
2021/06/13 12:42:18;;;;;;;4.95;0.90;;;24.50;31.90;;;;;;5048223;28;20099;-69
2021/06/13 12:44:43;;;;;;;4.97;0.88;;;24.30;31.90;;;;;;5049338;28;20787;-69
2021/06/13 12:47:09;;;;;;;3.05;0.75;;;24.10;32.20;;;;;;5049248;28;20430;-68
2021/06/13 12:49:39;;;;;;;6.22;0.80;;;24.20;32.10;;;;;;5049844;28;20041;-67
2021/06/13 12:52:13;;;;;;;5.30;1.05;;;24.20;32.10;;;;;;5049157;28;20025;-67
2021/06/13 12:54:39;;;;;;;2.13;0.70;;;24.20;32.70;;;;;;5048792;28;20025;-69
2021/06/13 12:57:05;;;;;;;5.82;0.70;;;24.30;34.10;;;;;;5048317;28;20025;-69
2021/06/13 12:59:35;;;;;;;2.00;0.63;;;24.40;33.70;;;;;;5047635;28;20025;-69
2021/06/13 13:02:01;;;;;;;3.55;1.10;;;24.50;33.30;;;;;;5047951;28;20031;-68
2021/06/13 13:04:44;;;;;;;6.45;0.80;;;24.60;32.50;;;;;;5047979;28;20529;-70
2021/06/13 13:07:10;;;;;;;3.78;0.90;;;25.00;33.70;;;;;;5048893;28;20036;-70